Weather History for KPRX - November, 2013

Change the Weather History Date:

Sunday, November 17, 2013

  Actual Average Record
Temperature  
Mean Temperature 71 °F -  
Max Temperature 82 °F 62 °F 82 °F (2013)
Min Temperature 60 °F 43 °F 21 °F (2014)
Cooling Degree Days 6    
Growing Degree Days 21 (Base 50)    
Moisture  
Dew Point 54 °F    
Average Humidity 53    
Maximum Humidity 78    
Minimum Humidity 28    
Precipitation  
Precipitation 0.00 in - - ()
Sea Level Pressure  
Sea Level Pressure 29.82 in    
Wind  
Wind Speed 15 mph (West)    
Max Wind Speed 21 mph    
Max Gust Speed 29 mph    
Visibility 10 miles    
Events      
Averages and records for this station are not official NWS values.
T = Trace of Precipitation, MM = Missing Value Source: NWS Daily Summary

Daily Weather History Graph

Daily Weather History Graph

Search for Another Location

Airport or City:

Trip Planner

Search our weather history database for the weather conditions in past years. The results will help you decide how hot, cold, wet, or windy it might be!

Date:

Astronomy

Nov. 17, 2013 Rise Set
Actual Time 6:55 AM CST 5:17 PM CST
Civil Twilight 6:29 AM CST 5:44 PM CST
Nautical Twilight 5:58 AM CST 6:14 PM CST
Astronomical Twilight 5:29 AM CST 6:43 PM CST
Moon 5:35 PM CST (11/17) 6:51 AM CST (11/17)
Length of Visible Light 11h 15m
Length of Day
10h 21m
Full, 100% of the Moon is Illuminated
Nov 17
Full
Nov 25
Last Quarter
Dec 2
New
Dec 9
First Quarter
Dec 17
Full

Hourly Weather History & Observations

Time (CST) Temp. Heat Index Dew Point Humidity Pressure Visibility Wind Dir Wind Speed Gust Speed Precip Events Conditions
12:15 AM 73.4 °F - 64.4 °F 73% 29.75 in 10.0 mi South 19.6 mph 23.0 mph N/A   Mostly Cloudy
12:35 AM 73.4 °F - 64.4 °F 73% 29.75 in 10.0 mi South 16.1 mph 24.2 mph N/A   Mostly Cloudy
12:55 AM 73.4 °F - 64.4 °F 73% 29.75 in 10.0 mi SSW 11.5 mph 20.7 mph N/A   Overcast
1:15 AM 73.4 °F - 64.4 °F 73% 29.74 in 10.0 mi SSW 13.8 mph - N/A   Overcast
1:35 AM 73.4 °F - 64.4 °F 73% 29.74 in 10.0 mi SSW 15.0 mph - N/A   Overcast
1:55 AM 73.4 °F - 64.4 °F 73% 29.74 in 10.0 mi SSW 15.0 mph 23.0 mph N/A   Overcast
2:15 AM 73.4 °F - 64.4 °F 73% 29.73 in 10.0 mi SSW 16.1 mph - N/A   Overcast
2:35 AM 73.4 °F - 64.4 °F 73% 29.74 in 10.0 mi SSW 13.8 mph 19.6 mph N/A   Overcast
2:55 AM 73.4 °F - 64.4 °F 73% 29.73 in 10.0 mi SSW 13.8 mph 19.6 mph N/A   Overcast
3:15 AM 73.4 °F - 64.4 °F 73% 29.73 in 10.0 mi SSW 15.0 mph 20.7 mph N/A   Overcast
3:35 AM 73.4 °F - 64.4 °F 73% 29.72 in 10.0 mi SSW 16.1 mph - N/A   Overcast
3:55 AM 73.4 °F - 64.4 °F 73% 29.72 in 10.0 mi SSW 15.0 mph 20.7 mph N/A   Overcast
4:15 AM 73.4 °F - 64.4 °F 73% 29.72 in 10.0 mi SSW 15.0 mph 24.2 mph N/A   Overcast
4:35 AM 73.4 °F - 64.4 °F 73% 29.72 in 10.0 mi SSW 17.3 mph 23.0 mph N/A   Overcast
4:55 AM 73.4 °F - 64.4 °F 73% 29.71 in 10.0 mi SSW 18.4 mph 27.6 mph N/A   Mostly Cloudy
5:15 AM 73.4 °F - 64.4 °F 73% 29.71 in 10.0 mi SSW 20.7 mph 28.8 mph N/A   Mostly Cloudy
5:35 AM 73.4 °F - 64.4 °F 73% 29.72 in 10.0 mi SW 16.1 mph 20.7 mph N/A   Overcast
5:55 AM 73.4 °F - 64.4 °F 73% 29.72 in 10.0 mi SW 16.1 mph - N/A   Overcast
6:15 AM 73.4 °F - 64.4 °F 73% 29.72 in 10.0 mi SSW 15.0 mph 24.2 mph N/A   Mostly Cloudy
6:35 AM 71.6 °F - 64.4 °F 78% 29.72 in 10.0 mi SSW 18.4 mph 24.2 mph N/A   Partly Cloudy
6:55 AM 71.6 °F - 64.4 °F 78% 29.73 in 10.0 mi SW 13.8 mph 24.2 mph N/A   Partly Cloudy
7:15 AM 71.6 °F - 64.4 °F 78% 29.74 in 10.0 mi SSW 13.8 mph 20.7 mph N/A   Partly Cloudy
7:35 AM 71.6 °F - 64.4 °F 78% 29.75 in 10.0 mi SW 16.1 mph 20.7 mph N/A   Scattered Clouds
7:55 AM 73.4 °F - 64.4 °F 73% 29.76 in 10.0 mi SW 13.8 mph - N/A   Scattered Clouds
8:15 AM 73.4 °F - 64.4 °F 73% 29.77 in 10.0 mi SW 12.7 mph - N/A   Mostly Cloudy
8:35 AM 73.4 °F - 64.4 °F 73% 29.78 in 10.0 mi SW 12.7 mph - N/A   Overcast
8:55 AM 75.2 °F - 66.2 °F 73% 29.78 in 10.0 mi SW 16.1 mph 23.0 mph N/A   Overcast
9:15 AM 75.2 °F - 64.4 °F 69% 29.79 in 10.0 mi SW 18.4 mph 26.5 mph N/A   Mostly Cloudy
9:35 AM 77.0 °F - 66.2 °F 69% 29.79 in 10.0 mi WSW 20.7 mph 28.8 mph N/A   Mostly Cloudy
9:55 AM 78.8 °F - 64.4 °F 61% 29.80 in 10.0 mi WSW 19.6 mph 25.3 mph N/A   Scattered Clouds
10:15 AM 78.8 °F - 64.4 °F 61% 29.81 in 10.0 mi WSW 17.3 mph 24.2 mph N/A   Scattered Clouds
10:35 AM 80.6 °F 82.3 °F 64.4 °F 58% 29.81 in 10.0 mi West 19.6 mph 25.3 mph N/A   Scattered Clouds
10:55 AM 78.8 °F - 62.6 °F 57% 29.81 in 10.0 mi West 19.6 mph 24.2 mph N/A   Partly Cloudy
11:15 AM 80.6 °F 81.5 °F 60.8 °F 51% 29.80 in 10.0 mi West 18.4 mph 23.0 mph N/A   Scattered Clouds
11:35 AM 80.6 °F 81.5 °F 60.8 °F 51% 29.80 in 10.0 mi West 18.4 mph 24.2 mph N/A   Partly Cloudy
11:55 AM 82.4 °F 82.0 °F 57.2 °F 42% 29.80 in 10.0 mi West 12.7 mph 23.0 mph N/A   Clear
12:15 PM 82.4 °F 81.7 °F 55.4 °F 39% 29.80 in 10.0 mi West 13.8 mph 21.9 mph N/A   Clear
12:35 PM 82.4 °F 81.7 °F 55.4 °F 39% 29.79 in 10.0 mi West 12.7 mph 20.7 mph N/A   Clear
12:55 PM 82.4 °F 81.7 °F 55.4 °F 39% 29.79 in 10.0 mi West 10.4 mph 18.4 mph N/A   Clear
1:15 PM 82.4 °F 81.4 °F 53.6 °F 37% 29.79 in 10.0 mi West 13.8 mph - N/A   Clear
1:35 PM 82.4 °F 81.4 °F 53.6 °F 37% 29.79 in 10.0 mi West 9.2 mph - N/A   Clear
1:55 PM 82.4 °F - 51.8 °F 35% 29.79 in 10.0 mi West 10.4 mph 16.1 mph N/A   Clear
2:15 PM 82.4 °F - 51.8 °F 35% 29.79 in 10.0 mi NW 12.7 mph 18.4 mph N/A   Clear
2:35 PM 82.4 °F - 51.8 °F 35% 29.79 in 10.0 mi NW 12.7 mph - N/A   Clear
2:55 PM 82.4 °F - 48.2 °F 30% 29.80 in 10.0 mi WNW 9.2 mph 18.4 mph N/A   Clear
3:15 PM 82.4 °F - 48.2 °F 30% 29.80 in 10.0 mi NW 12.7 mph - N/A   Clear
3:35 PM 82.4 °F - 46.4 °F 28% 29.81 in 10.0 mi West 12.7 mph - N/A   Clear
3:55 PM 82.4 °F - 48.2 °F 30% 29.82 in 10.0 mi West 9.2 mph - N/A   Clear
4:15 PM 80.6 °F - 48.2 °F 32% 29.83 in 10.0 mi West 8.1 mph - N/A   Clear
4:35 PM 78.8 °F - 44.6 °F 30% 29.84 in 10.0 mi West 9.2 mph - N/A   Clear
4:55 PM 77.0 °F - 42.8 °F 29% 29.85 in 10.0 mi West 6.9 mph - N/A   Clear
5:15 PM 75.2 °F - 42.8 °F 31% 29.85 in 10.0 mi West 8.1 mph - N/A   Clear
5:35 PM 73.4 °F - 42.8 °F 33% 29.86 in 10.0 mi West 5.8 mph - N/A   Clear
5:55 PM 71.6 °F - 41.0 °F 33% 29.87 in 10.0 mi NW 5.8 mph - N/A   Clear
6:15 PM 69.8 °F - 41.0 °F 35% 29.89 in 10.0 mi NW 6.9 mph - N/A   Clear
6:35 PM 69.8 °F - 42.8 °F 38% 29.90 in 10.0 mi NW 6.9 mph - N/A   Clear
6:55 PM 68.0 °F - 42.8 °F 40% 29.91 in 10.0 mi NNW 8.1 mph - N/A   Clear
7:15 PM 64.4 °F - 42.8 °F 45% 29.92 in 10.0 mi North 10.4 mph - N/A   Clear
7:35 PM 66.2 °F - 42.8 °F 43% 29.93 in 10.0 mi North 12.7 mph - N/A   Clear
7:55 PM 66.2 °F - 42.8 °F 43% 29.95 in 10.0 mi North 10.4 mph - N/A   Clear
8:15 PM 64.4 °F - 41.0 °F 42% 29.96 in 10.0 mi North 10.4 mph - N/A   Clear
8:35 PM 64.4 °F - 41.0 °F 42% 29.97 in 10.0 mi North 11.5 mph - N/A   Clear
8:55 PM 64.4 °F - 39.2 °F 40% 29.98 in 10.0 mi NNE 11.5 mph - N/A   Clear
9:15 PM 62.6 °F - 37.4 °F 39% 29.98 in 10.0 mi North 11.5 mph - N/A   Clear
9:35 PM 62.6 °F - 37.4 °F 39% 29.99 in 10.0 mi North 12.7 mph - N/A   Clear
9:55 PM 62.6 °F - 37.4 °F 39% 30.00 in 10.0 mi North 12.7 mph - N/A   Clear
10:15 PM 62.6 °F - 35.6 °F 37% 30.01 in 10.0 mi North 12.7 mph - N/A   Clear
10:35 PM 60.8 °F - 35.6 °F 39% 30.02 in 10.0 mi North 12.7 mph - N/A   Clear
10:55 PM 60.8 °F - 35.6 °F 39% 30.03 in 10.0 mi North 11.5 mph - N/A   Clear
11:15 PM 60.8 °F - 35.6 °F 39% 30.03 in 10.0 mi North 13.8 mph - N/A   Clear
11:35 PM 60.8 °F - 33.8 °F 36% 30.04 in 10.0 mi NNE 13.8 mph - N/A   Clear
11:55 PM 60.8 °F - 33.8 °F 36% 30.04 in 10.0 mi NNE 13.8 mph - N/A   Clear